Time;durP1;ratioP1;P1;durP2;ratioP2;P2;SDS_P1;SDS_P2;PMS_P1;PMS_P2;Temp;Humidity;BMP_temperature;BMP_pressure;BME280_temperature;BME280_humidity;BME280_pressure;Samples;Min_cycle;Max_cycle;Signal;HPM_P1;HPM_P2
2022/12/07 00:01:31;;;;;;;23.67;16.97;;;;;;;3.86;100.00;100275.75;5055338;28;20225;-79
2022/12/07 00:04:04;;;;;;;22.37;16.83;;;;;;;3.92;100.00;100282.69;5056047;28;20209;-79
2022/12/07 00:06:31;;;;;;;21.87;17.30;;;;;;;3.77;100.00;100293.78;5055874;28;20206;-79
2022/12/07 00:08:57;;;;;;;19.63;17.63;;;;;;;3.78;100.00;100286.03;5055605;28;20577;-79
2022/12/07 00:11:24;;;;;;;21.37;17.83;;;;;;;3.75;100.00;100280.88;5056314;28;20206;-79
2022/12/07 00:13:54;;;;;;;28.03;18.80;;;;;;;3.69;100.00;100267.06;5055728;28;20299;-79
2022/12/07 00:16:24;;;;;;;28.47;19.33;;;;;;;3.64;100.00;100248.94;5056811;28;20231;-79
2022/12/07 00:18:50;;;;;;;22.63;18.43;;;;;;;3.70;100.00;100233.50;5056151;28;20236;-79
2022/12/07 00:21:19;;;;;;;23.67;18.17;;;;;;;3.72;100.00;100226.63;5055578;28;20202;-79
2022/12/07 00:23:48;;;;;;;26.53;19.70;;;;;;;3.64;100.00;100222.28;5055967;28;20711;-78
2022/12/07 00:26:16;;;;;;;24.07;19.63;;;;;;;3.64;100.00;100217.13;5056019;28;20585;-79
2022/12/07 00:28:46;;;;;;;25.60;19.40;;;;;;;3.74;100.00;100218.91;5055905;28;20747;-79
2022/12/07 00:31:15;;;;;;;21.80;17.97;;;;;;;3.70;100.00;100214.56;5055761;28;20245;-79
2022/12/07 00:33:42;;;;;;;23.63;19.37;;;;;;;3.66;100.00;100212.84;5055691;28;20214;-79
2022/12/07 00:36:10;;;;;;;21.70;18.57;;;;;;;3.72;100.00;100205.97;5055734;28;20255;-79
2022/12/07 00:41:07;;;;;;;18.20;16.13;;;;;;;3.82;100.00;100211.19;5055406;28;20210;-79
2022/12/07 00:43:34;;;;;;;19.67;17.57;;;;;;;3.75;100.00;100218.06;5059251;28;20241;-81
2022/12/07 00:46:00;;;;;;;19.10;16.97;;;;;;;3.86;100.00;100212.94;5060292;28;20213;-81
2022/12/07 00:48:28;;;;;;;19.07;16.93;;;;;;;3.91;100.00;100213.81;5058991;28;20717;-81
2022/12/07 00:50:54;;;;;;;19.03;17.03;;;;;;;3.91;100.00;100214.69;5056608;28;20212;-81
2022/12/07 00:53:21;;;;;;;18.37;16.43;;;;;;;3.88;100.00;100219.81;5057829;28;20210;-81
2022/12/07 00:55:48;;;;;;;18.43;16.63;;;;;;;3.94;100.00;100219.00;5058519;28;20233;-81
2022/12/07 00:58:15;;;;;;;17.90;16.00;;;;;;;3.94;100.00;100217.28;5058621;28;20232;-80
2022/12/07 01:00:43;;;;;;;15.87;14.47;;;;;;;4.02;100.00;100222.47;5059631;28;20208;-81
2022/12/07 01:03:12;;;;;;;16.17;14.50;;;;;;;3.84;100.00;100224.97;5059872;28;20213;-81
2022/12/07 01:05:40;;;;;;;16.53;15.10;;;;;;;3.56;100.00;100215.34;5062189;28;20278;-81
2022/12/07 01:08:07;;;;;;;16.43;14.83;;;;;;;3.53;100.00;100188.69;5074260;28;20239;-79
2022/12/07 01:10:34;;;;;;;17.40;15.70;;;;;;;3.59;100.00;100168.06;5070979;28;20213;-80
2022/12/07 01:13:00;;;;;;;18.40;14.90;;;;;;;3.72;100.00;100161.25;5074364;28;20190;-80
2022/12/07 01:15:27;;;;;;;16.87;15.27;;;;;;;3.46;100.00;100161.13;5074996;28;20202;-81
2022/12/07 01:17:54;;;;;;;16.30;14.70;;;;;;;3.64;100.00;100144.84;5071951;28;20235;-80
2022/12/07 01:20:20;;;;;;;16.23;14.53;;;;;;;3.56;100.00;100139.66;5066260;28;20205;-81
2022/12/07 01:22:48;;;;;;;16.93;14.73;;;;;;;3.70;100.00;100143.16;5069214;28;20218;-80
2022/12/07 01:25:16;;;;;;;14.73;13.50;;;;;;;3.80;100.00;100143.19;5057340;28;20212;-80
2022/12/07 01:27:42;;;;;;;14.87;13.47;;;;;;;3.81;100.00;100153.53;5056638;28;20711;-80
2022/12/07 01:30:11;;;;;;;15.07;13.57;;;;;;;3.80;100.00;100156.09;5056527;28;20212;-80
2022/12/07 01:32:37;;;;;;;16.30;14.63;;;;;;;3.66;100.00;100151.75;5057207;28;20215;-80
2022/12/07 01:35:05;;;;;;;16.07;14.60;;;;;;;3.71;100.00;100142.31;5057891;28;20224;-80
2022/12/07 01:37:35;;;;;;;16.43;14.87;;;;;;;3.82;100.00;100137.19;5061000;28;20734;-81
2022/12/07 01:40:04;;;;;;;16.67;15.07;;;;;;;3.69;100.00;100144.03;5060657;28;20210;-82
2022/12/07 01:42:30;;;;;;;15.23;13.73;;;;;;;3.78;100.00;100132.88;5060601;28;20214;-80
2022/12/07 01:45:37;;;;;;;15.77;14.37;;;;;;;3.70;100.00;100140.56;5061341;28;20206;-81
2022/12/07 01:48:05;;;;;;;14.57;13.17;;;;;;;3.80;100.00;100136.31;5060966;28;20229;-81
2022/12/07 01:50:32;;;;;;;15.90;14.50;;;;;;;3.87;100.00;100138.06;5060347;28;20206;-79
2022/12/07 01:53:01;;;;;;;16.63;14.97;;;;;;;3.77;100.00;100142.34;5061073;28;20237;-81
2022/12/07 01:55:30;;;;;;;16.47;14.77;;;;;;;3.77;100.00;100131.16;5059812;28;20202;-81
2022/12/07 01:57:57;;;;;;;15.60;14.07;;;;;;;3.66;100.00;100118.19;5060278;28;20222;-81
2022/12/07 02:00:23;;;;;;;15.80;14.40;;;;;;;3.77;100.00;100115.66;5060867;28;20206;-80
2022/12/07 02:02:56;;;;;;;15.93;14.53;;;;;;;3.65;100.00;100111.31;5060794;28;20728;-81
2022/12/07 02:05:25;;;;;;;17.13;15.43;;;;;;;3.61;100.00;100106.13;5060144;28;20216;-81
2022/12/07 02:07:55;;;;;;;17.97;16.27;;;;;;;3.51;100.00;100100.94;5060385;28;20229;-82
2022/12/07 02:10:24;;;;;;;17.80;16.20;;;;;;;3.50;100.00;100075.97;5059368;28;20205;-81
2022/12/07 02:12:55;;;;;;;19.63;17.70;;;;;;;3.49;100.00;100068.22;5060336;28;20235;-80
2022/12/07 02:15:26;;;;;;;18.73;16.90;;;;;;;3.55;100.00;100066.53;5060331;28;20206;-80
2022/12/07 02:18:01;;;;;;;19.83;17.93;;;;;;;3.38;100.00;100050.13;5059888;28;20231;-80
2022/12/07 02:20:34;;;;;;;20.83;18.73;;;;;;;3.40;100.00;100047.56;5059363;28;20198;-81
2022/12/07 02:23:31;;;;;;;20.77;18.73;;;;;;;3.44;100.00;100039.84;5059557;28;20208;-80
2022/12/07 02:26:39;;;;;;;22.90;19.73;;;;;;;3.38;100.00;100042.41;5059684;28;20217;-81
2022/12/07 02:29:17;;;;;;;23.30;19.93;;;;;;;3.31;100.00;100036.34;5036665;28;20205;-80
2022/12/07 02:31:48;;;;;;;26.77;21.40;;;;;;;3.31;100.00;100031.19;5059140;28;20216;-81
2022/12/07 02:34:22;;;;;;;30.37;22.23;;;;;;;3.40;100.00;100019.19;5059495;28;20228;-79
2022/12/07 02:36:55;;;;;;;26.87;21.63;;;;;;;3.31;100.00;100018.31;5059059;28;20708;-80
2022/12/07 02:39:29;;;;;;;29.17;21.63;;;;;;;3.38;100.00;100019.19;5058764;28;20213;-79
2022/12/07 02:42:02;;;;;;;25.27;21.00;;;;;;;3.26;100.00;100017.41;5059117;28;20208;-80
2022/12/07 02:44:32;;;;;;;27.43;20.33;;;;;;;3.26;100.00;100016.56;5058945;28;20207;-80
2022/12/07 02:47:03;;;;;;;33.70;22.10;;;;;;;3.22;100.00;100022.56;5057586;28;20223;-80
2022/12/07 02:49:30;;;;;;;24.43;21.63;;;;;;;3.27;100.00;100019.16;5059207;28;20210;-80
2022/12/07 02:51:57;;;;;;;26.60;22.23;;;;;;;3.15;100.00;100022.53;5058632;28;20251;-81
2022/12/07 02:54:23;;;;;;;27.77;21.50;;;;;;;3.13;100.00;100024.25;5059185;28;20209;-82
2022/12/07 02:56:57;;;;;;;28.30;22.87;;;;;;;3.14;100.00;100010.47;5058447;28;20731;-81
2022/12/07 02:59:38;;;;;;;28.70;21.57;;;;;;;3.22;100.00;100020.84;5059415;28;20205;-81
2022/12/07 03:02:17;;;;;;;26.77;20.53;;;;;;;3.13;100.00;100023.38;5059034;28;20219;-79
2022/12/07 03:04:52;;;;;;;25.43;21.53;;;;;;;3.02;100.00;100025.91;5058988;28;20280;-80
2022/12/07 03:07:25;;;;;;;25.03;20.60;;;;;;;3.04;100.00;100026.78;5058800;28;20221;-80
2022/12/07 03:10:00;;;;;;;26.47;19.97;;;;;;;2.92;100.00;100026.72;5058444;28;20209;-80
2022/12/07 03:12:33;;;;;;;26.07;19.93;;;;;;;2.92;100.00;100024.13;5058914;28;20212;-81
2022/12/07 03:15:07;;;;;;;20.80;18.67;;;;;;;2.86;100.00;100027.53;5058943;28;20680;-80
2022/12/07 03:17:38;;;;;;;23.30;19.07;;;;;;;3.01;100.00;100029.31;5058688;28;20265;-80
2022/12/07 03:20:08;;;;;;;19.90;17.77;;;;;;;3.00;100.00;100037.94;5058615;28;20198;-80
2022/12/07 03:22:39;;;;;;;24.00;18.17;;;;;;;3.02;100.00;100033.63;5058706;28;20210;-81
2022/12/07 03:25:09;;;;;;;19.50;17.50;;;;;;;3.03;100.00;100043.09;5058209;28;20201;-80
2022/12/07 03:27:41;;;;;;;18.07;16.47;;;;;;;3.08;100.00;100043.97;5058047;28;20222;-80
2022/12/07 03:30:13;;;;;;;16.70;15.13;;;;;;;3.07;100.00;100047.44;5058611;28;20201;-81
2022/12/07 03:32:45;;;;;;;18.40;16.50;;;;;;;3.07;100.00;100057.75;5057937;28;20205;-81
2022/12/07 03:35:17;;;;;;;16.37;14.87;;;;;;;3.11;100.00;100054.31;5058367;28;20228;-82
2022/12/07 03:37:48;;;;;;;16.13;14.63;;;;;;;3.01;100.00;100064.56;5057774;28;20229;-81
2022/12/07 03:40:21;;;;;;;17.70;15.90;;;;;;;3.06;100.00;100058.59;5057631;28;20707;-81
2022/12/07 03:42:48;;;;;;;16.83;15.23;;;;;;;3.00;100.00;100055.13;5058403;28;20213;-82
2022/12/07 03:45:16;;;;;;;15.53;14.03;;;;;;;3.02;100.00;100054.28;5058148;28;20213;-80
2022/12/07 03:47:49;;;;;;;17.30;14.73;;;;;;;2.96;100.00;100059.38;5057271;28;20233;-81
2022/12/07 03:50:22;;;;;;;17.07;15.23;;;;;;;3.05;100.00;100061.16;5057051;28;20269;-80
2022/12/07 03:52:56;;;;;;;16.53;14.83;;;;;;;3.06;100.00;100066.31;5057943;28;20207;-81
2022/12/07 03:55:28;;;;;;;23.50;14.57;;;;;;;3.12;100.00;100075.81;5057925;28;20202;-81
2022/12/07 03:57:59;;;;;;;17.47;14.87;;;;;;;3.12;100.00;100066.34;5056749;28;20707;-80
2022/12/07 04:00:27;;;;;;;15.77;14.07;;;;;;;3.06;100.00;100071.47;5057506;28;20217;-81
2022/12/07 04:02:54;;;;;;;15.63;14.10;;;;;;;3.05;100.00;100079.19;5058058;28;20218;-82
2022/12/07 04:05:21;;;;;;;18.27;14.20;;;;;;;3.06;100.00;100078.34;5057217;28;20214;-80
2022/12/07 04:07:47;;;;;;;17.13;15.27;;;;;;;3.09;100.00;100086.09;5057647;28;20608;-81
2022/12/07 04:10:14;;;;;;;18.43;15.03;;;;;;;3.20;100.00;100086.16;5056690;28;20197;-81
2022/12/07 04:12:41;;;;;;;16.00;14.37;;;;;;;3.15;100.00;100093.88;5057707;28;20263;-81
2022/12/07 04:15:08;;;;;;;17.30;14.20;;;;;;;3.10;100.00;100096.41;5057820;28;20213;-80
2022/12/07 04:17:36;;;;;;;18.20;14.33;;;;;;;2.87;100.00;100098.84;5056955;28;20232;-80
2022/12/07 04:20:04;;;;;;;16.57;14.90;;;;;;;2.82;100.00;100081.66;5056785;28;20205;-80
2022/12/07 04:22:31;;;;;;;19.03;13.57;;;;;;;2.78;100.00;100075.59;5057376;28;20213;-81
2022/12/07 04:24:57;;;;;;;15.90;14.30;;;;;;;2.86;100.00;100067.94;5056884;28;20216;-81
2022/12/07 04:27:24;;;;;;;16.33;14.63;;;;;;;2.89;100.00;100063.63;5057878;28;20222;-80
2022/12/07 04:29:50;;;;;;;16.20;14.50;;;;;;;2.99;100.00;100064.53;5056960;28;20707;-79
2022/12/07 04:32:17;;;;;;;16.57;14.97;;;;;;;2.95;100.00;100065.38;5057792;28;20202;-79
2022/12/07 04:34:44;;;;;;;15.67;14.03;;;;;;;3.08;100.00;100068.91;5056675;28;20209;-81
2022/12/07 04:37:11;;;;;;;27.40;14.23;;;;;;;3.12;100.00;100068.94;5058457;28;20237;-81
2022/12/07 04:39:37;;;;;;;17.87;14.13;;;;;;;2.99;100.00;100064.53;5056730;28;20221;-81
2022/12/07 04:42:04;;;;;;;15.97;14.53;;;;;;;3.04;100.00;100062.88;5056712;28;20210;-81
2022/12/07 04:44:31;;;;;;;15.00;13.53;;;;;;;3.06;100.00;100066.31;5056922;28;20216;-81
2022/12/07 04:46:58;;;;;;;21.17;15.17;;;;;;;3.09;100.00;100071.50;5056924;28;20225;-81
2022/12/07 04:49:25;;;;;;;17.10;13.63;;;;;;;2.98;100.00;100068.00;5057267;28;20213;-81
2022/12/07 04:51:53;;;;;;;16.93;13.87;;;;;;;2.95;100.00;100065.38;5056331;28;20582;-81
2022/12/07 04:54:19;;;;;;;15.23;13.63;;;;;;;2.94;100.00;100049.06;5056610;28;20215;-82
2022/12/07 04:56:46;;;;;;;23.37;14.47;;;;;;;2.95;100.00;100049.91;5055843;28;20234;-82
2022/12/07 04:59:14;;;;;;;15.30;13.93;;;;;;;2.98;100.00;100050.81;5057110;28;20210;-81
2022/12/07 05:01:41;;;;;;;16.17;13.63;;;;;;;3.00;100.00;100040.50;5055993;28;20210;-80
2022/12/07 05:04:07;;;;;;;15.37;13.67;;;;;;;3.00;100.00;100043.09;5056829;28;20790;-80
2022/12/07 05:06:34;;;;;;;24.63;12.13;;;;;;;3.02;100.00;100036.22;5056277;28;20206;-81
2022/12/07 05:09:03;;;;;;;16.83;12.30;;;;;;;3.02;100.00;100053.41;5055426;28;20270;-81
2022/12/07 05:11:41;;;;;;;15.83;12.07;;;;;;;2.98;100.00;100052.53;5055531;28;20302;-81
2022/12/07 05:14:11;;;;;;;15.93;11.30;;;;;;;2.96;100.00;100059.38;5056679;28;20211;-80
2022/12/07 05:16:38;;;;;;;13.37;10.43;;;;;;;2.92;100.00;100065.38;5056300;28;20210;-79
2022/12/07 05:19:05;;;;;;;17.30;12.13;;;;;;;2.94;100.00;100064.53;5056634;28;20209;-81
2022/12/07 05:21:32;;;;;;;11.60;10.40;;;;;;;2.95;100.00;100065.38;5055971;28;20213;-81
2022/12/07 05:23:59;;;;;;;15.40;10.97;;;;;;;2.91;100.00;100069.66;5057406;28;20211;-82
2022/12/07 05:26:27;;;;;;;14.27;10.83;;;;;;;2.85;100.00;100066.19;5056303;28;20226;-82
2022/12/07 05:28:54;;;;;;;16.87;11.40;;;;;;;2.85;100.00;100056.72;5056411;28;20247;-81
2022/12/07 05:31:21;;;;;;;15.20;10.53;;;;;;;2.89;100.00;100055.03;5055637;28;20221;-80
2022/12/07 05:33:47;;;;;;;12.17;10.80;;;;;;;2.94;100.00;100054.22;5056179;28;20579;-81
2022/12/07 05:36:14;;;;;;;12.77;9.70;;;;;;;2.87;100.00;100054.16;5056373;28;20206;-82
2022/12/07 05:38:40;;;;;;;14.80;9.90;;;;;;;2.83;100.00;100049.84;5055747;28;20607;-81
2022/12/07 05:42:11;;;;;;;12.73;10.53;;;;;;;2.87;100.00;100057.59;5056353;28;20210;-80
2022/12/07 05:43:56;;;;;;;14.93;11.40;;;;;;;3.03;100.00;100060.28;5055744;28;20215;-80
2022/12/07 05:46:23;;;;;;;13.70;11.60;;;;;;;2.98;100.00;100060.25;5056117;28;20221;-82
2022/12/07 05:48:49;;;;;;;16.80;12.53;;;;;;;2.84;100.00;100069.63;5056511;28;20229;-82
2022/12/07 05:51:15;;;;;;;14.90;11.57;;;;;;;2.78;100.00;100052.41;5056107;28;20221;-81
2022/12/07 05:53:42;;;;;;;13.67;11.97;;;;;;;2.89;100.00;100026.69;5056014;28;20556;-80
2022/12/07 05:56:08;;;;;;;16.23;12.07;;;;;;;2.81;100.00;100034.38;5056479;28;20201;-81
2022/12/07 06:01:16;;;;;;;13.60;10.27;;;;;;;2.87;100.00;100042.13;5022053;28;20597;-83
2022/12/07 06:03:43;;;;;;;12.47;9.60;;;;;;;2.90;100.00;100042.16;5056022;28;20560;-81
2022/12/07 06:06:10;;;;;;;10.10;9.10;;;;;;;2.88;100.00;100053.34;5056690;28;20206;-82
2022/12/07 06:08:36;;;;;;;10.97;8.33;;;;;;;2.92;100.00;100047.34;5055803;28;20226;-81
2022/12/07 06:13:47;;;;;;;12.07;8.70;;;;;;;2.88;100.00;100048.19;5055918;28;20692;-82
2022/12/07 06:16:13;;;;;;;8.90;8.07;;;;;;;2.94;100.00;100048.22;5055588;28;20224;-82
2022/12/07 06:18:41;;;;;;;8.63;7.83;;;;;;;2.97;100.00;100061.09;5055703;28;20692;-80
2022/12/07 06:21:07;;;;;;;12.93;8.63;;;;;;;3.04;100.00;100068.03;5056251;28;20584;-81
2022/12/07 06:23:34;;;;;;;8.60;6.97;;;;;;;3.06;100.00;100080.94;5058781;28;20731;-81
2022/12/07 06:26:00;;;;;;;8.07;6.90;;;;;;;2.99;100.00;100092.91;5059878;28;20572;-81
2022/12/07 06:28:27;;;;;;;9.57;8.07;;;;;;;3.02;100.00;100094.66;5059609;28;20715;-81
2022/12/07 06:30:58;;;;;;;14.10;8.40;;;;;;;3.10;100.00;100090.41;5058586;28;20216;-81
2022/12/07 06:33:24;;;;;;;9.40;7.40;;;;;;;3.06;100.00;100089.53;5057919;28;20692;-81
2022/12/07 06:35:52;;;;;;;11.27;8.03;;;;;;;3.06;100.00;100096.41;5058532;28;20220;-79
2022/12/07 06:38:18;;;;;;;12.23;8.10;;;;;;;3.04;100.00;100103.28;5057379;28;20218;-79
2022/12/07 06:40:51;;;;;;;11.17;8.63;;;;;;;2.99;100.00;100095.50;5057956;28;20216;-82
2022/12/07 06:43:17;;;;;;;10.90;8.10;;;;;;;3.01;100.00;100096.34;5058304;28;20206;-80
2022/12/07 06:45:43;;;;;;;9.07;8.00;;;;;;;3.09;100.00;100096.41;5058112;28;20672;-80
2022/12/07 06:48:10;;;;;;;9.10;8.30;;;;;;;3.07;100.00;100099.00;5058142;28;20810;-81
2022/12/07 06:50:36;;;;;;;10.53;7.63;;;;;;;3.11;100.00;100097.28;5056980;28;20203;-80
2022/12/07 06:53:04;;;;;;;10.57;7.70;;;;;;;3.12;100.00;100099.03;5058410;28;20207;-80
2022/12/07 06:55:30;;;;;;;9.93;7.47;;;;;;;3.06;100.00;100097.25;5057795;28;20214;-81
2022/12/07 06:57:57;;;;;;;7.47;6.77;;;;;;;3.03;100.00;100086.91;5057502;28;20233;-82
2022/12/07 07:00:24;;;;;;;9.23;7.83;;;;;;;3.13;100.00;100087.84;5057298;28;20225;-80
2022/12/07 07:02:50;;;;;;;8.07;7.27;;;;;;;3.07;100.00;100088.69;5057009;28;20212;-80
2022/12/07 07:05:17;;;;;;;8.97;7.97;;;;;;;3.13;100.00;100093.88;5056997;28;20206;-82
2022/12/07 07:07:43;;;;;;;9.30;7.77;;;;;;;3.12;100.00;100089.56;5057048;28;20268;-80
2022/12/07 07:10:11;;;;;;;8.50;7.60;;;;;;;3.20;100.00;100099.06;5056228;28;20199;-82
2022/12/07 07:12:38;;;;;;;9.53;7.70;;;;;;;3.15;100.00;100104.19;5056778;28;20214;-80
2022/12/07 07:15:05;;;;;;;8.60;7.33;;;;;;;3.18;100.00;100099.91;5058280;28;20198;-80
2022/12/07 07:17:31;;;;;;;7.00;6.20;;;;;;;3.23;100.00;100114.53;5057575;28;20718;-79
2022/12/07 07:19:58;;;;;;;7.77;6.97;;;;;;;3.26;100.00;100119.72;5056568;28;20206;-81
2022/12/07 07:22:24;;;;;;;7.33;6.60;;;;;;;3.16;100.00;100131.72;5056866;28;20208;-80
2022/12/07 07:24:51;;;;;;;9.33;6.63;;;;;;;3.13;100.00;100126.50;5056593;28;20205;-80
2022/12/07 07:27:18;;;;;;;7.43;6.50;;;;;;;3.10;100.00;100135.09;5056919;28;20240;-80
2022/12/07 07:29:45;;;;;;;12.23;6.83;;;;;;;3.05;100.00;100141.94;5056670;28;20220;-80
2022/12/07 07:32:12;;;;;;;6.67;6.03;;;;;;;3.16;100.00;100132.56;5056494;28;20190;-81
2022/12/07 07:34:38;;;;;;;9.73;6.50;;;;;;;3.21;100.00;100139.47;5057379;28;20209;-81
2022/12/07 07:37:05;;;;;;;6.37;5.77;;;;;;;3.14;100.00;100138.56;5057229;28;20233;-81
2022/12/07 07:39:31;;;;;;;6.13;5.63;;;;;;;3.14;100.00;100147.16;5056460;28;20283;-80
2022/12/07 07:41:57;;;;;;;5.33;4.83;;;;;;;3.00;100.00;100160.81;5056386;28;20691;-80
2022/12/07 07:44:25;;;;;;;6.30;4.97;;;;;;;3.00;100.00;100155.66;5059318;28;20213;-79
2022/12/07 07:46:52;;;;;;;5.23;4.00;;;;;;;3.11;100.00;100154.00;5059982;28;20202;-79
2022/12/07 07:49:18;;;;;;;4.47;4.17;;;;;;;3.03;100.00;100173.72;5058475;28;20617;-79
2022/12/07 07:51:44;;;;;;;4.00;3.70;;;;;;;3.05;100.00;100177.19;5057407;28;20676;-80
2022/12/07 07:54:11;;;;;;;4.17;3.80;;;;;;;2.94;100.00;100171.94;5057320;28;20210;-80
2022/12/07 07:56:37;;;;;;;4.00;3.70;;;;;;;2.89;100.00;100173.63;5057212;28;20197;-80
2022/12/07 07:59:04;;;;;;;3.83;3.53;;;;;;;3.06;100.00;100166.03;5056890;28;20218;-80
2022/12/07 08:01:32;;;;;;;4.23;3.70;;;;;;;3.03;100.00;100172.00;5055202;28;20216;-80
2022/12/07 08:03:58;;;;;;;3.50;3.20;;;;;;;2.95;100.00;100169.41;5057604;28;20209;-80
2022/12/07 08:06:25;;;;;;;5.57;3.43;;;;;;;2.98;100.00;100174.56;5057991;28;20217;-79
2022/12/07 08:08:51;;;;;;;6.03;3.90;;;;;;;2.91;100.00;100175.34;5056583;28;20221;-79
2022/12/07 08:11:17;;;;;;;3.47;3.00;;;;;;;2.95;100.00;100166.81;5056583;28;20209;-80
2022/12/07 08:13:46;;;;;;;4.03;3.67;;;;;;;2.94;100.00;100153.91;5056237;28;20580;-79
2022/12/07 08:16:14;;;;;;;4.20;3.33;;;;;;;2.96;100.00;100155.63;5056374;28;20198;-80
2022/12/07 08:18:42;;;;;;;4.77;3.40;;;;;;;3.02;100.00;100159.13;5055731;28;20244;-79
2022/12/07 08:21:12;;;;;;;5.67;2.87;;;;;;;2.96;100.00;100168.53;5054158;28;20205;-79
2022/12/07 08:23:39;;;;;;;4.83;3.10;;;;;;;2.92;100.00;100160.75;5056521;28;20216;-80
2022/12/07 08:26:07;;;;;;;5.80;2.60;;;;;;;2.96;100.00;100163.38;5056924;28;20210;-79
2022/12/07 08:28:34;;;;;;;4.70;2.60;;;;;;;3.10;100.00;100167.78;5055885;28;20860;-79
2022/12/07 08:31:01;;;;;;;5.63;2.63;;;;;;;3.08;100.00;100172.91;5056303;28;20199;-80
2022/12/07 08:33:28;;;;;;;3.23;2.50;;;;;;;3.09;100.00;100163.44;5058218;28;20221;-81
2022/12/07 08:35:55;;;;;;;3.60;2.50;;;;;;;3.23;100.00;100155.81;5057877;28;20205;-81
2022/12/07 08:38:22;;;;;;;2.80;2.10;;;;;;;3.24;100.00;100157.53;5057227;28;20221;-81
2022/12/07 08:40:55;;;;;;;2.33;2.03;;;;;;;3.18;100.00;100155.78;5056294;28;20684;-81
2022/12/07 08:43:21;;;;;;;3.83;2.40;;;;;;;3.11;100.00;100147.16;5055596;28;20523;-80
2022/12/07 08:45:50;;;;;;;3.77;2.80;;;;;;;3.20;100.00;100142.91;5053384;28;20202;-81
2022/12/07 08:48:21;;;;;;;5.03;2.90;;;;;;;3.22;100.00;100147.22;5056043;28;20226;-80
2022/12/07 08:50:49;;;;;;;3.97;2.97;;;;;;;3.40;100.00;100150.75;5056300;28;20217;-82
2022/12/07 08:53:17;;;;;;;5.87;3.03;;;;;;;3.47;100.00;100155.09;5056394;28;20201;-82
2022/12/07 08:55:45;;;;;;;3.60;2.80;;;;;;;3.38;100.00;100177.41;5056005;28;20213;-83
2022/12/07 08:58:12;;;;;;;4.97;3.17;;;;;;;3.43;100.00;100187.78;5056323;28;20226;-80
2022/12/07 09:00:38;;;;;;;5.50;2.93;;;;;;;3.32;100.00;100195.44;5053477;28;20197;-79
2022/12/07 09:03:05;;;;;;;8.77;3.40;;;;;;;3.40;100.00;100194.63;5054890;28;20210;-80
2022/12/07 09:05:34;;;;;;;8.17;3.33;;;;;;;3.44;100.00;100191.19;5055946;28;20210;-81
2022/12/07 09:08:02;;;;;;;6.17;2.80;;;;;;;3.41;100.00;100196.34;5056000;28;20220;-82
2022/12/07 09:10:30;;;;;;;3.97;3.00;;;;;;;3.54;100.00;100203.31;5055601;28;20209;-81
2022/12/07 09:13:00;;;;;;;5.40;3.00;;;;;;;3.66;100.00;100207.66;5056400;28;20269;-81
2022/12/07 09:15:27;;;;;;;6.83;4.17;;;;;;;3.75;100.00;100210.31;5055500;28;20201;-79
2022/12/07 09:17:53;;;;;;;5.67;3.50;;;;;;;3.68;100.00;100230.03;5055566;28;20264;-80
2022/12/07 09:20:20;;;;;;;3.47;3.10;;;;;;;3.64;100.00;100235.19;5055249;28;20684;-80
2022/12/07 09:22:49;;;;;;;4.20;3.73;;;;;;;3.65;100.00;100240.38;5055820;28;20204;-81
2022/12/07 09:25:15;;;;;;;4.63;3.70;;;;;;;3.66;100.00;100247.25;5055613;28;20216;-82
2022/12/07 09:27:43;;;;;;;3.67;3.33;;;;;;;3.69;100.00;100244.69;5055859;28;20237;-82
2022/12/07 09:30:10;;;;;;;4.43;3.10;;;;;;;3.68;100.00;100242.94;5055330;28;20213;-82
2022/12/07 09:32:36;;;;;;;4.83;3.00;;;;;;;3.81;100.00;100266.28;5055473;28;20668;-80
2022/12/07 09:35:03;;;;;;;6.50;3.20;;;;;;;3.76;100.00;100279.13;5057382;28;20209;-82
2022/12/07 09:37:31;;;;;;;6.13;2.63;;;;;;;3.76;100.00;100287.75;5056815;28;20225;-79
2022/12/07 09:39:57;;;;;;;4.87;2.90;;;;;;;3.69;99.70;100288.56;5055800;28;20213;-78
2022/12/07 09:42:30;;;;;;;3.87;2.27;;;;;;;3.77;98.63;100319.59;5056688;28;20697;-81
2022/12/07 09:45:00;;;;;;;2.50;2.27;;;;;;;3.74;99.36;100304.94;5056246;28;20207;-82
2022/12/07 09:47:27;;;;;;;3.70;2.10;;;;;;;3.64;99.00;100300.56;5056946;28;20228;-81
2022/12/07 09:49:56;;;;;;;2.20;2.00;;;;;;;3.57;100.00;100288.50;5056574;28;20208;-79
2022/12/07 09:52:28;;;;;;;2.37;1.83;;;;;;;3.56;100.00;100263.53;5056993;28;20233;-81
2022/12/07 09:54:55;;;;;;;3.33;1.50;;;;;;;3.60;100.00;100259.25;5056170;28;20213;-81
2022/12/07 09:57:29;;;;;;;6.13;2.00;;;;;;;3.51;99.58;100268.66;5058961;28;20498;-81
2022/12/07 10:00:00;;;;;;;6.50;1.60;;;;;;;3.47;99.71;100274.66;5060529;28;20232;-82
2022/12/07 10:02:37;;;;;;;3.13;1.40;;;;;;;3.44;100.00;100266.88;5060759;28;20212;-82
2022/12/07 10:05:05;;;;;;;2.53;1.40;;;;;;;3.65;100.00;100263.59;5060905;28;20201;-82
2022/12/07 10:07:32;;;;;;;3.13;1.83;;;;;;;3.58;100.00;100262.69;5059714;28;20248;-81
2022/12/07 10:09:58;;;;;;;10.63;2.50;;;;;;;3.64;100.00;100248.09;5059531;28;20202;-80
2022/12/07 10:12:25;;;;;;;3.30;2.30;;;;;;;3.62;100.00;100235.19;5059645;28;20221;-79
2022/12/07 10:14:56;;;;;;;4.87;2.37;;;;;;;3.65;100.00;100231.75;5059938;28;20208;-80
2022/12/07 10:17:32;;;;;;;5.17;2.13;;;;;;;3.65;100.00;100234.31;5059415;28;20221;-80
2022/12/07 10:20:21;;;;;;;4.43;2.10;;;;;;;3.76;100.00;100237.84;5059236;28;20236;-81
2022/12/07 10:22:56;;;;;;;3.27;1.83;;;;;;;3.72;100.00;100239.53;5059861;28;20212;-81
2022/12/07 10:25:26;;;;;;;2.27;1.87;;;;;;;3.73;100.00;100251.59;5060405;28;20210;-80
2022/12/07 10:28:00;;;;;;;2.37;1.87;;;;;;;3.70;99.78;100266.19;5060888;28;20247;-81
2022/12/07 10:30:27;;;;;;;1.13;0.93;;;;;;;3.54;99.60;100272.97;5060138;28;20215;-80
2022/12/07 10:32:55;;;;;;;1.80;1.20;;;;;;;3.49;99.29;100284.97;5059809;28;20672;-80
2022/12/07 10:35:25;;;;;;;2.50;1.33;;;;;;;3.67;99.45;100279.09;5060031;28;20201;-82
2022/12/07 10:37:53;;;;;;;2.67;1.87;;;;;;;3.57;98.58;100286.78;5060282;28;20222;-82
2022/12/07 10:40:33;;;;;;;2.80;1.10;;;;;;;3.52;99.25;100275.53;5060270;28;20221;-82
2022/12/07 10:43:16;;;;;;;2.80;1.60;;;;;;;3.67;99.18;100268.78;5060766;28;20209;-81
2022/12/07 10:46:16;;;;;;;1.93;1.30;;;;;;;3.61;99.13;100272.19;5060887;28;20212;-80
2022/12/07 10:48:51;;;;;;;4.53;1.70;;;;;;;3.61;99.74;100269.59;5045544;28;20236;-82
2022/12/07 10:51:27;;;;;;;2.63;1.50;;;;;;;3.76;100.00;100240.41;5058021;28;20205;-80
2022/12/07 10:54:04;;;;;;;2.67;1.40;;;;;;;3.71;100.00;100224.06;5059337;28;20227;-80
2022/12/07 10:56:56;;;;;;;2.53;1.50;;;;;;;3.73;100.00;100224.94;5058924;28;20201;-82
2022/12/07 10:59:38;;;;;;;3.77;2.10;;;;;;;3.73;99.80;100245.59;5057132;28;20727;-80
2022/12/07 11:02:24;;;;;;;2.97;2.07;;;;;;;3.76;99.15;100256.75;5057279;28;20276;-81
2022/12/07 11:05:05;;;;;;;5.53;2.50;;;;;;;3.80;99.21;100255.06;5057279;28;20668;-80
2022/12/07 11:07:46;;;;;;;3.80;2.70;;;;;;;3.71;98.87;100253.31;5056521;28;20717;-80
2022/12/07 11:10:19;;;;;;;3.17;2.97;;;;;;;3.74;99.61;100247.28;5059342;28;20206;-80
2022/12/07 11:13:04;;;;;;;3.87;3.00;;;;;;;3.80;99.08;100236.13;5056364;28;20230;-81
2022/12/07 11:15:37;;;;;;;7.73;2.93;;;;;;;3.82;99.35;100230.13;5056795;28;20203;-81
2022/12/07 11:18:08;;;;;;;5.60;2.90;;;;;;;3.78;98.88;100236.97;5057178;28;20229;-82
2022/12/07 11:20:46;;;;;;;3.50;3.20;;;;;;;3.87;98.38;100251.69;5056707;28;20208;-81
2022/12/07 11:23:22;;;;;;;3.00;2.70;;;;;;;3.91;97.60;100265.47;5057372;28;20210;-81
2022/12/07 11:25:55;;;;;;;5.77;3.27;;;;;;;3.96;97.34;100264.66;5057574;28;20205;-81
2022/12/07 11:28:37;;;;;;;8.60;3.10;;;;;;;4.09;97.24;100291.38;5056666;28;20222;-80
2022/12/07 11:31:13;;;;;;;6.93;2.63;;;;;;;4.06;96.91;100299.09;5056831;28;20205;-81
2022/12/07 11:33:44;;;;;;;2.67;2.23;;;;;;;4.07;96.64;100298.25;5061291;28;20213;-80
2022/12/07 11:36:30;;;;;;;4.00;2.20;;;;;;;4.14;96.99;100294.88;5067446;28;20208;-79